Time,TemperatureF,DewpointF,PressureIn,WindDirection,WindDirectionDegrees,WindSpeedMPH,WindSpeedGustMPH,Humidity,HourlyPrecipIn,Conditions,Clouds,dailyrainin,SoftwareType,DateUTC
2013-07-05 00:33:00,64.0,61.0,29.81,East,100,2.0,-999.0,90,0.00,,,-99.99,,2013-07-05 07:33:00,
2013-07-05 00:43:00,64.0,61.0,29.81,East,100,2.0,-999.0,90,0.00,,,-99.99,,2013-07-05 07:43:00,
2013-07-05 00:53:00,64.0,61.0,29.81,East,100,2.0,-999.0,90,0.00,,,-99.99,,2013-07-05 07:53:00,
2013-07-05 01:33:00,64.0,61.0,29.80,SE,140,1.0,-999.0,90,0.00,,,-99.99,,2013-07-05 08:33:00,
2013-07-05 01:43:00,64.0,61.0,29.80,SE,140,1.0,-999.0,90,0.00,,,-99.99,,2013-07-05 08:43:00,
2013-07-05 01:53:00,64.0,61.0,29.80,SE,140,1.0,-999.0,90,0.00,,,-99.99,,2013-07-05 08:53:00,
2013-07-05 02:36:00,64.0,61.0,29.79,SE,130,1.0,-999.0,90,0.00,,,-99.99,,2013-07-05 09:36:00,
2013-07-05 02:45:00,64.0,61.0,29.79,SE,130,1.0,-999.0,90,0.00,,,-99.99,,2013-07-05 09:45:00,
2013-07-05 02:53:00,64.0,61.0,29.79,SE,130,1.0,-999.0,90,0.00,,,-99.99,,2013-07-05 09:53:00,
2013-07-05 02:55:00,64.0,61.0,29.77,North,0,0.0,-999.0,90,0.00,,,-99.99,,2013-07-05 09:55:00,
2013-07-05 03:35:00,64.0,61.0,29.77,North,0,0.0,-999.0,90,0.00,,,-99.99,,2013-07-05 10:35:00,
2013-07-05 03:46:00,64.0,61.0,29.77,North,0,0.0,-999.0,90,0.00,,,-99.99,,2013-07-05 10:46:00,
2013-07-05 04:36:00,64.0,61.0,29.76,WNW,290,1.0,-999.0,90,0.00,,,-99.99,,2013-07-05 11:36:00,
2013-07-05 04:45:00,64.0,61.0,29.76,WNW,290,1.0,-999.0,90,0.00,,,-99.99,,2013-07-05 11:45:00,
2013-07-05 04:54:00,64.0,61.0,29.77,North,0,0.0,-999.0,90,0.00,,,-99.99,,2013-07-05 11:54:00,
2013-07-05 05:35:00,64.0,61.0,29.77,North,0,0.0,-999.0,90,0.00,,,-99.99,,2013-07-05 12:35:00,
2013-07-05 06:36:00,64.0,61.0,29.78,South,180,3.0,-999.0,90,0.00,,,-99.99,,2013-07-05 13:36:00,
2013-07-05 06:46:00,64.0,61.0,29.78,South,180,3.0,-999.0,90,0.00,,,-99.99,,2013-07-05 13:46:00,
2013-07-05 06:54:00,64.0,61.0,29.79,ESE,110,1.0,-999.0,89,0.00,,,-99.99,,2013-07-05 13:54:00,
2013-07-05 07:36:00,64.0,61.0,29.79,ESE,110,1.0,-999.0,89,0.00,,,-99.99,,2013-07-05 14:36:00,
2013-07-05 07:45:00,64.0,61.0,29.79,ESE,110,1.0,-999.0,89,0.00,,,-99.99,,2013-07-05 14:45:00,
2013-07-05 08:33:00,65.0,61.0,29.81,North,0,0.0,-999.0,87,0.00,,,-99.99,,2013-07-05 15:33:00,
2013-07-05 08:43:00,65.0,61.0,29.81,North,0,0.0,-999.0,87,0.00,,,-99.99,,2013-07-05 15:43:00,
2013-07-05 08:53:00,65.0,61.0,29.81,North,0,0.0,-999.0,87,0.00,,,-99.99,,2013-07-05 15:53:00,
2013-07-05 09:33:00,66.0,62.0,29.82,SSW,200,5.0,-999.0,86,0.00,,,-99.99,,2013-07-05 16:33:00,
2013-07-05 09:44:00,66.0,62.0,29.82,SSW,200,5.0,-999.0,86,0.00,,,-99.99,,2013-07-05 16:44:00,
2013-07-05 10:33:00,69.0,64.0,29.82,North,0,0.0,-999.0,83,0.00,,,-99.99,,2013-07-05 17:33:00,
2013-07-05 10:43:00,69.0,64.0,29.82,North,0,0.0,-999.0,83,0.00,,,-99.99,,2013-07-05 17:43:00,
2013-07-05 10:53:00,69.0,64.0,29.82,North,0,0.0,-999.0,83,0.00,,,-99.99,,2013-07-05 17:53:00,
2013-07-05 11:33:00,66.0,62.0,29.82,WSW,240,2.0,-999.0,86,0.00,,,-99.99,,2013-07-05 18:33:00,
2013-07-05 11:43:00,66.0,62.0,29.82,WSW,240,2.0,-999.0,86,0.00,,,-99.99,,2013-07-05 18:43:00,
2013-07-05 11:53:00,66.0,62.0,29.82,WSW,240,2.0,-999.0,86,0.00,,,-99.99,,2013-07-05 18:53:00,
2013-07-05 12:33:00,67.0,62.0,29.84,South,170,1.0,-999.0,85,0.00,,,-99.99,,2013-07-05 19:33:00,
2013-07-05 12:42:00,67.0,62.0,29.84,South,170,1.0,-999.0,85,0.00,,,-99.99,,2013-07-05 19:42:00,
2013-07-05 12:52:00,67.0,62.0,29.84,South,170,1.0,-999.0,85,0.00,,,-99.99,,2013-07-05 19:52:00,
2013-07-05 13:33:00,69.0,63.0,29.82,WNW,300,3.0,-999.0,81,0.00,,,-99.99,,2013-07-05 20:33:00,
2013-07-05 13:43:00,69.0,63.0,29.82,WNW,300,3.0,-999.0,81,0.00,,,-99.99,,2013-07-05 20:43:00,
2013-07-05 13:53:00,69.0,63.0,29.82,WNW,300,3.0,-999.0,81,0.00,,,-99.99,,2013-07-05 20:53:00,
2013-07-05 14:34:00,68.0,63.0,29.81,South,180,4.0,-999.0,83,0.00,,,-99.99,,2013-07-05 21:34:00,
2013-07-05 14:42:00,68.0,63.0,29.81,South,180,4.0,-999.0,83,0.00,,,-99.99,,2013-07-05 21:42:00,
2013-07-05 14:53:00,68.0,63.0,29.81,South,180,4.0,-999.0,83,0.00,,,-99.99,,2013-07-05 21:53:00,
2013-07-05 15:33:00,69.0,63.0,29.79,WSW,250,5.0,-999.0,82,0.00,,,-99.99,,2013-07-05 22:33:00,
2013-07-05 15:43:00,69.0,63.0,29.79,WSW,250,5.0,-999.0,82,0.00,,,-99.99,,2013-07-05 22:43:00,
2013-07-05 15:53:00,69.0,63.0,29.79,WSW,250,5.0,-999.0,82,0.00,,,-99.99,,2013-07-05 22:53:00,
2013-07-05 16:32:00,69.0,63.0,29.78,West,280,4.0,-999.0,82,0.00,,,-99.99,,2013-07-05 23:32:00,
2013-07-05 16:43:00,69.0,63.0,29.78,West,280,4.0,-999.0,82,0.00,,,-99.99,,2013-07-05 23:43:00,
2013-07-05 16:53:00,69.0,63.0,29.78,West,280,4.0,-999.0,82,0.00,,,-99.99,,2013-07-05 23:53:00,
2013-07-05 17:42:00,69.0,64.0,29.77,West,260,4.0,-999.0,83,0.00,,,-99.99,,2013-07-06 00:42:00,
2013-07-05 17:53:00,69.0,64.0,29.77,West,260,4.0,-999.0,83,0.00,,,-99.99,,2013-07-06 00:53:00,
2013-07-05 18:33:00,67.0,63.0,29.77,WSW,250,3.0,-999.0,86,0.00,,,-99.99,,2013-07-06 01:33:00,
2013-07-05 18:42:00,67.0,63.0,29.77,WSW,250,3.0,-999.0,86,0.00,,,-99.99,,2013-07-06 01:42:00,
2013-07-05 18:53:00,67.0,63.0,29.77,WSW,250,3.0,-999.0,86,0.00,,,-99.99,,2013-07-06 01:53:00,
2013-07-05 19:33:00,66.0,62.0,29.77,West,270,2.0,-999.0,87,0.00,,,-99.99,,2013-07-06 02:33:00,
2013-07-05 19:43:00,66.0,62.0,29.77,West,270,2.0,-999.0,87,0.00,,,-99.99,,2013-07-06 02:43:00,
2013-07-05 19:52:00,66.0,62.0,29.77,West,270,2.0,-999.0,87,0.00,,,-99.99,,2013-07-06 02:52:00,
2013-07-05 20:34:00,66.0,62.0,29.78,SW,220,5.0,-999.0,87,0.00,,,-99.99,,2013-07-06 03:34:00,
2013-07-05 20:43:00,66.0,62.0,29.78,SW,220,5.0,-999.0,87,0.00,,,-99.99,,2013-07-06 03:43:00,
2013-07-05 20:52:00,66.0,62.0,29.78,SW,220,5.0,-999.0,87,0.00,,,-99.99,,2013-07-06 03:52:00,
2013-07-05 21:33:00,65.0,62.0,29.79,SW,220,3.0,-999.0,89,0.00,,,-99.99,,2013-07-06 04:33:00,
2013-07-05 21:43:00,65.0,62.0,29.79,SW,220,3.0,-999.0,89,0.00,,,-99.99,,2013-07-06 04:43:00,
2013-07-05 21:53:00,65.0,62.0,29.79,SW,220,3.0,-999.0,89,0.00,,,-99.99,,2013-07-06 04:53:00,
2013-07-05 22:33:00,65.0,62.0,29.81,South,180,1.0,-999.0,89,0.00,,,-99.99,,2013-07-06 05:33:00,
2013-07-05 22:42:00,65.0,62.0,29.81,South,180,1.0,-999.0,89,0.00,,,-99.99,,2013-07-06 05:42:00,
2013-07-05 22:53:00,65.0,62.0,29.81,South,180,1.0,-999.0,89,0.00,,,-99.99,,2013-07-06 05:53:00,
2013-07-05 23:34:00,65.0,62.0,29.81,SW,220,1.0,-999.0,89,0.00,,,-99.99,,2013-07-06 06:34:00,
2013-07-05 23:43:00,65.0,62.0,29.81,SW,220,1.0,-999.0,89,0.00,,,-99.99,,2013-07-06 06:43:00,
2013-07-05 23:53:00,65.0,62.0,29.81,SW,220,1.0,-999.0,89,0.00,,,-99.99,,2013-07-06 06:53:00,